createdAt,value
2017-08-07T00:00:24.919Z,15.69
2017-08-07T00:01:26.744Z,15.76
2017-08-07T00:02:28.566Z,15.68
2017-08-07T00:03:30.450Z,15.65
2017-08-07T00:04:32.328Z,15.64
2017-08-07T00:05:34.215Z,15.59
2017-08-07T00:06:48.386Z,15.54
2017-08-07T00:07:50.270Z,15.53
2017-08-07T00:08:52.155Z,15.54
2017-08-07T00:09:54.038Z,15.56
2017-08-07T00:10:55.861Z,15.46
2017-08-07T00:11:57.685Z,15.56
2017-08-07T00:12:59.569Z,15.51
2017-08-07T00:14:01.451Z,15.49
2017-08-07T00:15:03.335Z,15.46
2017-08-07T00:16:17.502Z,15.43
2017-08-07T00:17:19.383Z,15.51
2017-08-07T00:18:21.266Z,15.49
2017-08-07T00:19:23.158Z,15.50
2017-08-07T00:20:24.982Z,15.41
2017-08-07T00:21:26.804Z,15.39
2017-08-07T00:22:28.686Z,15.34
2017-08-07T00:23:30.565Z,15.39
2017-08-07T00:24:32.450Z,15.41
2017-08-07T00:25:46.614Z,15.34
2017-08-07T00:26:48.494Z,15.29
2017-08-07T00:27:50.386Z,15.27
2017-08-07T00:28:52.268Z,15.27
2017-08-07T00:29:54.092Z,15.21
2017-08-07T00:30:55.913Z,15.27
2017-08-07T00:31:57.796Z,15.23
2017-08-07T00:32:59.677Z,15.29
2017-08-07T00:34:01.558Z,15.27
2017-08-07T00:35:15.716Z,15.32
2017-08-07T00:36:17.595Z,15.23
2017-08-07T00:37:19.490Z,15.31
2017-08-07T00:38:21.372Z,15.21
2017-08-07T00:39:23.199Z,15.11
2017-08-07T00:40:25.021Z,15.16
2017-08-07T00:41:26.903Z,15.07
2017-08-07T00:42:28.787Z,15.13
2017-08-07T00:43:30.666Z,15.19
2017-08-07T00:44:44.827Z,15.10
2017-08-07T00:45:46.707Z,15.11
2017-08-07T00:46:48.600Z,15.07
2017-08-07T00:47:50.482Z,15.07
2017-08-07T00:48:52.307Z,15.10
2017-08-07T00:49:54.129Z,15.09
2017-08-07T00:50:56.009Z,15.16
2017-08-07T00:51:57.889Z,15.11
2017-08-07T00:52:59.773Z,15.07
2017-08-07T00:54:13.944Z,15.14
2017-08-07T00:55:15.823Z,15.13
2017-08-07T00:56:17.706Z,15.03
2017-08-07T00:57:19.589Z,14.99
2017-08-07T00:58:21.414Z,15.03
2017-08-07T00:59:23.236Z,14.96
2017-08-07T01:00:25.118Z,14.99
2017-08-07T01:01:26.996Z,14.99
2017-08-07T01:02:28.881Z,15.02
2017-08-07T01:03:43.086Z,15.01
2017-08-07T01:04:44.966Z,14.88
2017-08-07T01:05:46.850Z,14.98
2017-08-07T01:06:48.730Z,14.92
2017-08-07T01:07:50.563Z,14.92
2017-08-07T01:08:52.399Z,14.94
2017-08-07T01:09:54.277Z,15.01
2017-08-07T01:10:56.158Z,14.89
2017-08-07T01:11:58.052Z,14.92
2017-08-07T01:13:12.210Z,14.91
2017-08-07T01:14:14.091Z,15.01
2017-08-07T01:15:15.976Z,14.95
2017-08-07T01:16:17.861Z,14.99
2017-08-07T01:17:19.679Z,14.86
2017-08-07T01:18:21.502Z,14.88
2017-08-07T01:19:23.384Z,14.86
2017-08-07T01:20:25.264Z,14.95
2017-08-07T01:21:27.144Z,14.86
2017-08-07T01:22:41.301Z,14.94
2017-08-07T01:23:43.180Z,14.83
2017-08-07T01:24:45.074Z,14.84
2017-08-07T01:25:46.957Z,14.80
2017-08-07T01:26:48.778Z,14.77
2017-08-07T01:27:50.612Z,14.77
2017-08-07T01:28:52.491Z,14.77
2017-08-07T01:29:54.371Z,14.78
2017-08-07T01:30:56.252Z,14.73
2017-08-07T01:32:10.410Z,14.81
2017-08-07T01:33:12.289Z,14.65
2017-08-07T01:34:14.181Z,14.72
2017-08-07T01:35:16.062Z,14.75
2017-08-07T01:36:17.885Z,14.61
2017-08-07T01:37:19.708Z,14.58
2017-08-07T01:38:21.590Z,14.54
2017-08-07T01:39:23.469Z,14.60
2017-08-07T01:40:25.356Z,14.54
2017-08-07T01:41:39.565Z,14.50
2017-08-07T01:42:41.445Z,14.57
2017-08-07T01:43:43.328Z,14.47
2017-08-07T01:44:45.209Z,14.42
2017-08-07T01:45:47.032Z,14.52
2017-08-07T01:46:48.854Z,14.50
2017-08-07T01:47:50.735Z,14.43
2017-08-07T01:48:52.614Z,14.42
2017-08-07T01:49:54.505Z,14.42
2017-08-07T01:51:08.663Z,14.43
2017-08-07T01:52:10.543Z,14.35
2017-08-07T01:53:12.428Z,14.27
2017-08-07T01:54:14.308Z,14.20
2017-08-07T01:55:16.129Z,14.24
2017-08-07T01:56:17.951Z,14.17
2017-08-07T01:57:19.837Z,14.21
2017-08-07T01:58:21.711Z,14.17
2017-08-07T01:59:23.592Z,14.22
2017-08-07T02:00:37.809Z,14.24
2017-08-07T02:01:39.695Z,14.20
2017-08-07T02:02:41.570Z,14.04
2017-08-07T02:03:43.450Z,14.14
2017-08-07T02:04:45.272Z,14.07
2017-08-07T02:05:47.102Z,14.09
2017-08-07T02:06:48.982Z,14.17
2017-08-07T02:07:50.860Z,14.06
2017-08-07T02:08:52.743Z,14.14
2017-08-07T02:10:06.902Z,14.06
2017-08-07T02:11:08.780Z,14.14
2017-08-07T02:12:10.672Z,14.12
2017-08-07T02:13:12.551Z,14.15
2017-08-07T02:14:14.384Z,14.07
2017-08-07T02:15:16.224Z,14.07
2017-08-07T02:16:18.085Z,14.14
2017-08-07T02:17:19.969Z,14.00
2017-08-07T02:18:21.847Z,14.02
2017-08-07T02:19:36.005Z,14.10
2017-08-07T02:20:37.888Z,14.07
2017-08-07T02:21:39.769Z,14.06
2017-08-07T02:22:41.649Z,14.04
2017-08-07T02:23:43.470Z,14.00
2017-08-07T02:24:45.293Z,14.00
2017-08-07T02:25:47.176Z,13.99
2017-08-07T02:26:49.055Z,14.04
2017-08-07T02:27:50.936Z,14.02
2017-08-07T02:29:05.093Z,14.04
2017-08-07T02:30:06.985Z,13.95
2017-08-07T02:31:08.858Z,14.06
2017-08-07T02:32:10.746Z,13.92
2017-08-07T02:33:12.559Z,14.06
2017-08-07T02:34:14.380Z,14.03
2017-08-07T02:35:16.259Z,14.03
2017-08-07T02:36:18.149Z,13.91
2017-08-07T02:37:20.032Z,13.91
2017-08-07T02:38:34.190Z,13.88
2017-08-07T02:39:36.074Z,13.89
2017-08-07T02:40:37.957Z,13.89
2017-08-07T02:41:39.840Z,13.84
2017-08-07T02:42:41.671Z,13.78
2017-08-07T02:43:43.487Z,13.82
2017-08-07T02:44:45.369Z,13.82
2017-08-07T02:45:47.246Z,13.77
2017-08-07T02:46:49.130Z,13.82
2017-08-07T02:48:03.288Z,13.79
2017-08-07T02:49:05.166Z,13.78
2017-08-07T02:50:07.047Z,13.75
2017-08-07T02:51:08.930Z,13.70
2017-08-07T02:52:10.748Z,13.81
2017-08-07T02:53:12.568Z,13.73
2017-08-07T02:54:14.447Z,13.69
2017-08-07T02:55:16.328Z,13.79
2017-08-07T02:56:18.209Z,13.79
2017-08-07T02:57:32.380Z,13.84
2017-08-07T02:58:34.258Z,13.82
2017-08-07T02:59:36.137Z,13.85
2017-08-07T03:00:38.019Z,13.81
2017-08-07T03:01:39.840Z,13.81
2017-08-07T03:02:41.660Z,13.81
2017-08-07T03:03:43.541Z,13.77
2017-08-07T03:04:45.422Z,13.73
2017-08-07T03:05:47.303Z,13.70
2017-08-07T03:07:01.475Z,13.70
2017-08-07T03:08:03.364Z,13.59
2017-08-07T03:09:05.238Z,13.46
2017-08-07T03:10:07.122Z,13.29
2017-08-07T03:11:08.939Z,13.28
2017-08-07T03:12:10.762Z,13.23
2017-08-07T03:13:12.652Z,13.26
2017-08-07T03:14:14.532Z,13.32
2017-08-07T03:15:16.417Z,13.30
2017-08-07T03:16:30.575Z,13.33
2017-08-07T03:17:32.456Z,13.41
2017-08-07T03:18:34.340Z,13.33
2017-08-07T03:19:36.224Z,13.33
2017-08-07T03:20:38.049Z,13.38
2017-08-07T03:21:39.871Z,13.38
2017-08-07T03:22:41.752Z,13.46
2017-08-07T03:23:43.632Z,13.51
2017-08-07T03:24:45.515Z,13.36
2017-08-07T03:25:59.673Z,13.36
2017-08-07T03:27:01.558Z,13.39
2017-08-07T03:28:03.438Z,13.39
2017-08-07T03:29:05.322Z,13.52
2017-08-07T03:30:07.153Z,13.44
2017-08-07T03:31:08.981Z,13.54
2017-08-07T03:32:10.862Z,13.48
2017-08-07T03:33:12.743Z,13.48
2017-08-07T03:34:14.627Z,13.49
2017-08-07T03:35:28.789Z,13.45
2017-08-07T03:36:30.668Z,13.32
2017-08-07T03:37:32.550Z,13.36
2017-08-07T03:38:34.436Z,13.45
2017-08-07T03:39:36.263Z,13.36
2017-08-07T03:40:38.087Z,13.36
2017-08-07T03:41:39.970Z,13.38
2017-08-07T03:42:41.853Z,13.38
2017-08-07T03:43:43.742Z,13.32
2017-08-07T03:44:57.904Z,13.25
2017-08-07T03:45:59.785Z,13.26
2017-08-07T03:47:01.671Z,13.20
2017-08-07T03:48:03.554Z,13.32
2017-08-07T03:49:05.381Z,13.41
2017-08-07T03:50:07.207Z,13.36
2017-08-07T03:51:09.089Z,13.33
2017-08-07T03:52:10.938Z,13.41
2017-08-07T03:53:12.799Z,13.33
2017-08-07T03:54:27.010Z,13.38
2017-08-07T03:55:28.890Z,13.32
2017-08-07T03:56:30.773Z,13.36
2017-08-07T03:57:32.656Z,13.38
2017-08-07T03:58:34.482Z,13.33
2017-08-07T03:59:36.309Z,13.41
2017-08-07T04:00:38.192Z,13.41
2017-08-07T04:01:40.085Z,13.39
2017-08-07T04:02:41.972Z,13.36
2017-08-07T04:03:56.133Z,13.39
2017-08-07T04:04:58.017Z,13.46
2017-08-07T04:05:59.901Z,13.45
2017-08-07T04:07:01.787Z,13.49
2017-08-07T04:08:03.613Z,13.62
2017-08-07T04:09:05.437Z,13.89
2017-08-07T04:10:07.324Z,14.22
2017-08-07T04:11:09.208Z,14.55
2017-08-07T04:12:11.092Z,14.91
2017-08-07T04:13:25.264Z,15.44
2017-08-07T04:14:27.165Z,15.62
2017-08-07T04:15:29.036Z,15.96
2017-08-07T04:16:30.920Z,16.21
2017-08-07T04:17:32.760Z,16.49
2017-08-07T04:18:34.587Z,16.67
2017-08-07T04:19:36.472Z,16.93
2017-08-07T04:20:38.368Z,17.15
2017-08-07T04:21:40.257Z,17.38
2017-08-07T04:22:54.421Z,17.58
2017-08-07T04:23:56.304Z,17.68
2017-08-07T04:24:58.201Z,17.99
2017-08-07T04:26:00.089Z,18.18
2017-08-07T04:27:01.927Z,18.33
2017-08-07T04:28:03.765Z,18.50
2017-08-07T04:29:05.647Z,18.60
2017-08-07T04:30:07.535Z,18.65
2017-08-07T04:31:09.423Z,18.85
2017-08-07T04:32:23.587Z,19.00
2017-08-07T04:33:25.473Z,19.11
2017-08-07T04:34:27.361Z,19.06
2017-08-07T04:35:29.249Z,19.11
2017-08-07T04:36:31.079Z,19.31
2017-08-07T04:37:32.910Z,19.41
2017-08-07T04:38:34.795Z,19.59
2017-08-07T04:39:36.683Z,19.76
2017-08-07T04:40:38.571Z,19.81
2017-08-07T04:41:52.748Z,19.96
2017-08-07T04:42:54.635Z,20.13
2017-08-07T04:43:56.522Z,20.23
2017-08-07T04:44:58.408Z,20.39
2017-08-07T04:46:00.251Z,20.58
2017-08-07T04:47:02.082Z,20.69
2017-08-07T04:48:03.969Z,20.58
2017-08-07T04:49:05.857Z,20.76
2017-08-07T04:50:07.751Z,20.76
2017-08-07T04:51:21.920Z,20.88
2017-08-07T04:52:23.809Z,20.88
2017-08-07T04:53:25.695Z,20.94
2017-08-07T04:54:27.583Z,21.07
2017-08-07T04:55:29.413Z,21.12
2017-08-07T04:56:31.242Z,21.25
2017-08-07T04:57:33.130Z,21.29
2017-08-07T04:58:35.027Z,21.37
2017-08-07T04:59:36.911Z,21.46
2017-08-07T05:00:51.075Z,21.49
2017-08-07T05:01:52.961Z,21.52
2017-08-07T05:02:54.863Z,21.54
2017-08-07T05:03:56.753Z,21.54
2017-08-07T05:04:58.583Z,21.56
2017-08-07T05:06:00.412Z,21.58
2017-08-07T05:07:02.301Z,21.64
2017-08-07T05:08:04.188Z,21.61
2017-08-07T05:09:06.089Z,21.69
2017-08-07T05:10:20.263Z,21.69
2017-08-07T05:11:22.139Z,21.65
2017-08-07T05:12:24.029Z,21.58
2017-08-07T05:13:25.922Z,21.53
2017-08-07T05:14:27.747Z,21.46
2017-08-07T05:15:29.576Z,21.34
2017-08-07T05:16:31.462Z,21.21
2017-08-07T05:17:33.412Z,21.13
2017-08-07T05:18:35.279Z,21.04
2017-08-07T05:19:49.455Z,20.94
2017-08-07T05:20:51.377Z,20.76
2017-08-07T05:21:53.274Z,20.73
2017-08-07T05:22:55.162Z,20.66
2017-08-07T05:23:56.996Z,20.48
2017-08-07T05:24:58.830Z,20.23
2017-08-07T05:26:00.711Z,20.10
2017-08-07T05:27:02.599Z,19.98
2017-08-07T05:28:04.487Z,19.84
2017-08-07T05:29:18.652Z,19.74
2017-08-07T05:30:20.541Z,19.56
2017-08-07T05:31:22.428Z,19.48
2017-08-07T05:32:24.314Z,19.46
2017-08-07T05:33:26.141Z,19.28
2017-08-07T05:34:27.975Z,19.21
2017-08-07T05:35:29.861Z,19.02
2017-08-07T05:36:31.760Z,19.11
2017-08-07T05:37:33.652Z,18.92
2017-08-07T05:38:47.817Z,18.87
2017-08-07T05:39:49.704Z,18.87
2017-08-07T05:40:51.592Z,18.87
2017-08-07T05:41:53.480Z,18.73
2017-08-07T05:42:55.311Z,18.62
2017-08-07T05:43:57.143Z,18.75
2017-08-07T05:44:59.032Z,18.63
2017-08-07T05:46:00.918Z,18.54
2017-08-07T05:47:02.808Z,18.48
2017-08-07T05:48:17.026Z,18.47
2017-08-07T05:49:18.912Z,18.47
2017-08-07T05:50:20.801Z,18.51
2017-08-07T05:51:22.688Z,18.41
2017-08-07T05:52:24.528Z,18.47
2017-08-07T05:53:26.356Z,18.42
2017-08-07T05:54:28.245Z,18.39
2017-08-07T05:55:30.149Z,18.39
2017-08-07T05:56:32.039Z,18.32
2017-08-07T05:57:46.207Z,18.29
2017-08-07T05:58:48.094Z,18.25
2017-08-07T05:59:49.985Z,18.23
2017-08-07T06:00:51.881Z,18.30
2017-08-07T06:01:53.707Z,18.23
2017-08-07T06:02:55.537Z,18.14
2017-08-07T06:03:57.425Z,18.20
2017-08-07T06:04:59.324Z,18.05
2017-08-07T06:06:01.227Z,18.17
2017-08-07T06:07:15.393Z,18.08
2017-08-07T06:08:17.280Z,18.12
2017-08-07T06:09:19.169Z,18.14
2017-08-07T06:10:21.070Z,18.10
2017-08-07T06:11:22.893Z,18.23
2017-08-07T06:12:24.725Z,18.21
2017-08-07T06:13:27.070Z,18.26
2017-08-07T06:14:28.970Z,18.35
2017-08-07T06:15:30.867Z,18.39
2017-08-07T06:16:45.032Z,18.36
2017-08-07T06:17:46.918Z,18.27
2017-08-07T06:18:48.811Z,18.29
2017-08-07T06:19:50.695Z,18.20
2017-08-07T06:20:52.523Z,18.14
2017-08-07T06:21:54.353Z,18.29
2017-08-07T06:22:56.239Z,18.26
2017-08-07T06:23:58.136Z,18.27
2017-08-07T06:25:00.032Z,18.33
2017-08-07T06:26:14.207Z,18.29
2017-08-07T06:27:16.118Z,18.21
2017-08-07T06:28:18.000Z,18.15
2017-08-07T06:29:19.887Z,18.23
2017-08-07T06:30:21.723Z,18.29
2017-08-07T06:31:23.556Z,18.41
2017-08-07T06:32:25.565Z,18.50
2017-08-07T06:33:27.439Z,18.48
2017-08-07T06:34:29.334Z,18.54
2017-08-07T06:35:43.499Z,18.47
2017-08-07T06:36:45.387Z,18.54
2017-08-07T06:37:47.275Z,18.50
2017-08-07T06:38:49.168Z,18.57
2017-08-07T06:39:50.999Z,18.66
2017-08-07T06:40:52.827Z,18.62
2017-08-07T06:41:54.715Z,18.72
2017-08-07T06:42:56.603Z,18.73
2017-08-07T06:43:58.493Z,18.70
2017-08-07T06:45:12.657Z,18.69
2017-08-07T06:46:14.544Z,18.73
2017-08-07T06:47:16.444Z,18.80
2017-08-07T06:48:18.331Z,18.82
2017-08-07T06:49:20.162Z,18.85
2017-08-07T06:50:21.993Z,18.84
2017-08-07T06:51:23.884Z,18.82
2017-08-07T06:52:25.772Z,18.78
2017-08-07T06:53:27.664Z,18.82
2017-08-07T06:54:41.833Z,18.82
2017-08-07T06:55:43.720Z,18.81
2017-08-07T06:56:45.614Z,18.88
2017-08-07T06:57:47.503Z,18.75
2017-08-07T06:58:49.333Z,19.02
2017-08-07T06:59:51.175Z,19.13
2017-08-07T07:00:53.023Z,19.19
2017-08-07T07:01:54.871Z,19.21
2017-08-07T07:02:56.698Z,19.23
2017-08-07T07:04:10.864Z,19.13
2017-08-07T07:05:12.753Z,19.16
2017-08-07T07:06:14.641Z,19.18
2017-08-07T07:07:16.545Z,19.14
2017-08-07T07:08:18.421Z,19.29
2017-08-07T07:09:20.263Z,19.16
2017-08-07T07:10:22.093Z,19.23
2017-08-07T07:11:23.982Z,19.29
2017-08-07T07:12:25.870Z,19.18
2017-08-07T07:13:40.046Z,19.36
2017-08-07T07:14:41.925Z,19.36
2017-08-07T07:15:43.813Z,19.41
2017-08-07T07:16:45.701Z,19.40
2017-08-07T07:17:47.531Z,19.41
2017-08-07T07:18:49.362Z,19.41
2017-08-07T07:19:51.790Z,19.55
2017-08-07T07:20:54.372Z,19.62
2017-08-07T07:21:56.254Z,19.63
2017-08-07T07:23:10.423Z,19.77
2017-08-07T07:24:12.316Z,19.77
2017-08-07T07:25:14.202Z,19.81
2017-08-07T07:26:16.090Z,19.84
2017-08-07T07:27:17.920Z,19.73
2017-08-07T07:28:19.755Z,19.77
2017-08-07T07:29:21.642Z,19.80
2017-08-07T07:30:23.531Z,19.88
2017-08-07T07:31:25.429Z,19.87
2017-08-07T07:32:39.597Z,19.74
2017-08-07T07:33:41.487Z,19.77
2017-08-07T07:34:43.373Z,19.80
2017-08-07T07:35:45.260Z,19.88
2017-08-07T07:36:47.103Z,19.91
2017-08-07T07:37:48.933Z,19.95
2017-08-07T07:38:50.821Z,19.84
2017-08-07T07:39:52.708Z,19.92
2017-08-07T07:40:54.598Z,19.96
2017-08-07T07:42:08.776Z,20.08
2017-08-07T07:43:10.665Z,20.16
2017-08-07T07:44:12.553Z,20.28
2017-08-07T07:45:14.440Z,20.24
2017-08-07T07:46:16.269Z,20.38
2017-08-07T07:47:18.101Z,20.31
2017-08-07T07:48:19.988Z,20.36
2017-08-07T07:49:21.878Z,20.50
2017-08-07T07:50:23.768Z,20.39
2017-08-07T07:51:37.933Z,20.47
2017-08-07T07:52:39.819Z,20.50
2017-08-07T07:53:41.709Z,20.54
2017-08-07T07:54:43.601Z,20.54
2017-08-07T07:55:45.428Z,20.54
2017-08-07T07:56:47.264Z,20.55
2017-08-07T07:57:49.150Z,20.54
2017-08-07T07:58:51.037Z,20.70
2017-08-07T07:59:52.929Z,20.69
2017-08-07T08:01:07.099Z,20.76
2017-08-07T08:02:08.986Z,20.70
2017-08-07T08:03:10.879Z,20.70
2017-08-07T08:04:12.771Z,20.70
2017-08-07T08:05:14.601Z,20.66
2017-08-07T08:06:16.431Z,20.62
2017-08-07T08:07:18.316Z,20.61
2017-08-07T08:08:20.216Z,20.70
2017-08-07T08:09:22.107Z,20.73
2017-08-07T08:10:36.274Z,20.74
2017-08-07T08:11:38.163Z,20.62
2017-08-07T08:12:40.053Z,20.69
2017-08-07T08:13:41.943Z,20.73
2017-08-07T08:14:43.777Z,20.70
2017-08-07T08:15:45.608Z,20.80
2017-08-07T08:16:47.503Z,20.85
2017-08-07T08:17:49.383Z,20.89
2017-08-07T08:18:51.278Z,20.92
2017-08-07T08:20:05.441Z,21.01
2017-08-07T08:21:07.330Z,21.13
2017-08-07T08:22:09.222Z,21.17
2017-08-07T08:23:11.113Z,21.13
2017-08-07T08:24:12.947Z,21.24
2017-08-07T08:25:14.780Z,21.13
2017-08-07T08:26:16.667Z,21.14
2017-08-07T08:27:18.567Z,21.28
2017-08-07T08:28:20.461Z,21.32
2017-08-07T08:29:34.627Z,21.49
2017-08-07T08:30:36.515Z,21.50
2017-08-07T08:31:38.404Z,21.52
2017-08-07T08:32:40.293Z,21.37
2017-08-07T08:33:42.138Z,21.35
2017-08-07T08:34:43.968Z,21.25
2017-08-07T08:35:45.858Z,21.32
2017-08-07T08:36:47.758Z,21.38
2017-08-07T08:37:49.647Z,21.53
2017-08-07T08:39:03.814Z,21.53
2017-08-07T08:40:05.704Z,21.61
2017-08-07T08:41:07.597Z,21.64
2017-08-07T08:42:09.488Z,21.82
2017-08-07T08:43:11.318Z,21.74
2017-08-07T08:44:13.154Z,21.62
2017-08-07T08:45:15.041Z,21.53
2017-08-07T08:46:16.936Z,21.38
2017-08-07T08:47:18.835Z,21.34
2017-08-07T08:48:32.995Z,21.35
2017-08-07T08:49:34.881Z,21.37
2017-08-07T08:50:36.774Z,21.37
2017-08-07T08:51:38.681Z,21.50
2017-08-07T08:52:40.491Z,21.44
2017-08-07T08:53:42.322Z,21.35
2017-08-07T08:54:44.213Z,21.37
2017-08-07T08:55:46.103Z,21.31
2017-08-07T08:56:47.994Z,21.34
2017-08-07T08:58:02.160Z,21.34
2017-08-07T08:59:04.047Z,21.34
2017-08-07T09:00:05.937Z,21.38
2017-08-07T09:01:07.830Z,21.38
2017-08-07T09:02:09.663Z,21.44
2017-08-07T09:03:11.494Z,21.40
2017-08-07T09:04:13.391Z,21.50
2017-08-07T09:05:15.278Z,21.38
2017-08-07T09:06:17.172Z,21.27
2017-08-07T09:07:31.339Z,21.24
2017-08-07T09:08:33.228Z,21.14
2017-08-07T09:09:35.119Z,21.17
2017-08-07T09:10:37.009Z,21.29
2017-08-07T09:11:38.853Z,21.29
2017-08-07T09:12:40.684Z,21.28
2017-08-07T09:13:42.575Z,21.28
2017-08-07T09:14:44.463Z,21.44
2017-08-07T09:15:46.357Z,21.38
2017-08-07T09:17:00.525Z,21.34
2017-08-07T09:18:02.419Z,21.25
2017-08-07T09:19:04.301Z,21.24
2017-08-07T09:20:06.189Z,21.31
2017-08-07T09:21:08.021Z,21.35
2017-08-07T09:22:09.855Z,21.49
2017-08-07T09:23:11.743Z,21.52
2017-08-07T09:24:13.632Z,21.61
2017-08-07T09:25:15.531Z,21.68
2017-08-07T09:26:29.699Z,21.75
2017-08-07T09:27:31.589Z,21.72
2017-08-07T09:28:33.475Z,21.77
2017-08-07T09:29:35.363Z,21.80
2017-08-07T09:30:37.224Z,21.96
2017-08-07T09:31:39.036Z,22.03
2017-08-07T09:32:40.926Z,22.15
2017-08-07T09:33:42.814Z,22.22
2017-08-07T09:34:44.717Z,22.30
2017-08-07T09:35:58.883Z,22.20
2017-08-07T09:37:00.775Z,22.20
2017-08-07T09:38:02.863Z,22.12
2017-08-07T09:39:04.756Z,22.15
2017-08-07T09:40:06.587Z,22.07
2017-08-07T09:41:08.415Z,22.03
2017-08-07T09:42:10.320Z,21.92
2017-08-07T09:43:12.205Z,21.91
2017-08-07T09:44:14.099Z,21.92
2017-08-07T09:45:28.262Z,22.03
2017-08-07T09:46:30.151Z,21.99
2017-08-07T09:47:32.043Z,22.02
2017-08-07T09:48:33.936Z,22.10
2017-08-07T09:49:35.760Z,22.20
2017-08-07T09:50:37.596Z,22.22
2017-08-07T09:51:39.483Z,22.28
2017-08-07T09:52:41.388Z,22.51
2017-08-07T09:53:43.270Z,22.64
2017-08-07T09:54:57.437Z,22.91
2017-08-07T09:55:59.328Z,23.02
2017-08-07T09:57:01.218Z,23.13
2017-08-07T09:58:03.104Z,23.33
2017-08-07T09:59:04.952Z,23.36
2017-08-07T10:00:06.812Z,23.13
2017-08-07T10:01:08.680Z,23.05
2017-08-07T10:02:10.568Z,23.02
2017-08-07T10:03:12.466Z,23.01
2017-08-07T10:04:26.682Z,23.00
2017-08-07T10:05:28.572Z,22.98
2017-08-07T10:06:30.462Z,23.17
2017-08-07T10:07:32.353Z,23.33
2017-08-07T10:08:34.198Z,23.54
2017-08-07T10:09:36.029Z,23.51
2017-08-07T10:10:37.931Z,23.60
2017-08-07T10:11:39.819Z,23.70
2017-08-07T10:12:41.720Z,23.60
2017-08-07T10:13:55.890Z,23.57
2017-08-07T10:14:57.778Z,23.39
2017-08-07T10:15:59.669Z,23.27
2017-08-07T10:17:01.557Z,23.25
2017-08-07T10:18:03.390Z,23.35
2017-08-07T10:19:05.221Z,23.33
2017-08-07T10:20:07.112Z,23.36
2017-08-07T10:21:09.006Z,23.39
2017-08-07T10:22:10.897Z,23.25
2017-08-07T10:23:25.067Z,23.23
2017-08-07T10:24:26.958Z,23.05
2017-08-07T10:25:28.851Z,22.98
2017-08-07T10:26:30.742Z,22.88
2017-08-07T10:27:32.574Z,22.91
2017-08-07T10:28:34.408Z,22.97
2017-08-07T10:29:36.297Z,23.04
2017-08-07T10:30:38.204Z,23.04
2017-08-07T10:31:40.095Z,23.20
2017-08-07T10:32:54.264Z,23.48
2017-08-07T10:33:56.160Z,23.50
2017-08-07T10:34:58.045Z,23.54
2017-08-07T10:35:59.936Z,23.55
2017-08-07T10:37:01.765Z,23.60
2017-08-07T10:38:03.601Z,23.60
2017-08-07T10:39:05.491Z,23.65
2017-08-07T10:40:07.380Z,23.55
2017-08-07T10:41:09.272Z,23.60
2017-08-07T10:42:23.440Z,23.51
2017-08-07T10:43:25.330Z,23.28
2017-08-07T10:44:27.225Z,23.10
2017-08-07T10:45:29.120Z,23.05
2017-08-07T10:46:30.950Z,23.09
2017-08-07T10:47:32.784Z,23.32
2017-08-07T10:48:34.672Z,23.50
2017-08-07T10:49:36.560Z,23.60
2017-08-07T10:50:38.452Z,23.80
2017-08-07T10:51:52.620Z,23.95
2017-08-07T10:52:54.509Z,23.98
2017-08-07T10:53:56.402Z,24.13
2017-08-07T10:54:58.301Z,24.03
2017-08-07T10:56:00.136Z,24.02
2017-08-07T10:57:01.965Z,23.97
2017-08-07T10:58:03.857Z,23.95
2017-08-07T10:59:05.746Z,23.95
2017-08-07T11:00:07.639Z,23.88
2017-08-07T11:01:21.818Z,23.87
2017-08-07T11:02:23.706Z,23.75
2017-08-07T11:03:25.599Z,23.63
2017-08-07T11:04:27.488Z,23.55
2017-08-07T11:05:29.332Z,23.58
2017-08-07T11:06:31.164Z,23.50
2017-08-07T11:07:33.055Z,23.50
2017-08-07T11:08:34.943Z,23.57
2017-08-07T11:09:36.841Z,23.53
2017-08-07T11:10:51.006Z,23.55
2017-08-07T11:11:52.897Z,23.55
2017-08-07T11:12:54.789Z,23.63
2017-08-07T11:13:56.680Z,23.76
2017-08-07T11:14:58.512Z,23.78
2017-08-07T11:16:00.346Z,23.97
2017-08-07T11:17:02.236Z,24.05
2017-08-07T11:18:04.124Z,24.16
2017-08-07T11:19:06.014Z,24.21
2017-08-07T11:20:20.182Z,24.39
2017-08-07T11:21:22.073Z,24.46
2017-08-07T11:22:23.973Z,24.34
2017-08-07T11:23:25.852Z,24.21
2017-08-07T11:24:27.696Z,24.15
2017-08-07T11:25:29.528Z,24.09
2017-08-07T11:26:31.421Z,24.03
2017-08-07T11:27:33.313Z,23.97
2017-08-07T11:28:35.251Z,23.94
2017-08-07T11:29:49.401Z,23.95
2017-08-07T11:30:51.291Z,23.87
2017-08-07T11:31:53.181Z,23.79
2017-08-07T11:32:55.073Z,23.76
2017-08-07T11:33:56.905Z,23.93
2017-08-07T11:34:58.737Z,23.93
2017-08-07T11:36:00.624Z,24.06
2017-08-07T11:37:02.535Z,24.10
2017-08-07T11:38:04.414Z,24.03
2017-08-07T11:39:18.588Z,23.95
2017-08-07T11:40:20.478Z,23.83
2017-08-07T11:41:22.369Z,23.76
2017-08-07T11:42:24.258Z,23.65
2017-08-07T11:43:26.104Z,23.65
2017-08-07T11:44:27.939Z,23.58
2017-08-07T11:45:29.829Z,23.65
2017-08-07T11:46:31.720Z,23.61
2017-08-07T11:47:33.617Z,23.73
2017-08-07T11:48:47.786Z,23.76
2017-08-07T11:49:49.674Z,23.78
2017-08-07T11:50:51.565Z,23.94
2017-08-07T11:51:53.463Z,24.02
2017-08-07T11:52:55.306Z,24.06
2017-08-07T11:53:57.138Z,24.05
2017-08-07T11:54:59.030Z,24.10
2017-08-07T11:56:00.920Z,24.22
2017-08-07T11:57:02.813Z,24.25
2017-08-07T11:58:17.030Z,24.35
2017-08-07T11:59:18.922Z,24.39
2017-08-07T12:00:20.812Z,24.47
2017-08-07T12:01:22.705Z,24.52
2017-08-07T12:02:24.541Z,24.85
2017-08-07T12:03:26.374Z,24.95
2017-08-07T12:04:28.267Z,25.05
2017-08-07T12:05:30.157Z,25.10
2017-08-07T12:06:32.050Z,25.17
2017-08-07T12:07:46.218Z,25.23
2017-08-07T12:08:48.109Z,25.24
2017-08-07T12:09:50.002Z,25.15
2017-08-07T12:10:51.894Z,25.15
2017-08-07T12:11:53.728Z,25.09
2017-08-07T12:12:55.563Z,25.10
2017-08-07T12:13:57.455Z,25.05
2017-08-07T12:14:59.346Z,24.88
2017-08-07T12:16:01.238Z,24.77
2017-08-07T12:17:15.409Z,24.69
2017-08-07T12:18:17.299Z,24.58
2017-08-07T12:19:19.192Z,24.73
2017-08-07T12:20:21.083Z,24.76
2017-08-07T12:21:22.929Z,24.71
2017-08-07T12:22:24.761Z,24.71
2017-08-07T12:23:26.655Z,24.69
2017-08-07T12:24:28.544Z,24.53
2017-08-07T12:25:30.438Z,24.57
2017-08-07T12:26:44.608Z,24.58
2017-08-07T12:27:46.497Z,24.62
2017-08-07T12:28:48.388Z,24.60
2017-08-07T12:29:50.279Z,24.55
2017-08-07T12:30:52.109Z,24.61
2017-08-07T12:31:53.942Z,24.58
2017-08-07T12:32:55.835Z,24.49
2017-08-07T12:33:57.729Z,24.43
2017-08-07T12:34:59.622Z,24.43
2017-08-07T12:36:13.792Z,24.39
2017-08-07T12:37:15.680Z,24.37
2017-08-07T12:38:17.581Z,24.39
2017-08-07T12:39:19.471Z,24.43
2017-08-07T12:40:21.304Z,24.58
2017-08-07T12:41:23.137Z,24.76
2017-08-07T12:42:25.032Z,24.80
2017-08-07T12:43:26.917Z,24.96
2017-08-07T12:44:28.812Z,24.98
2017-08-07T12:45:43.036Z,25.05
2017-08-07T12:46:44.919Z,25.13
2017-08-07T12:47:46.821Z,25.15
2017-08-07T12:48:48.712Z,25.06
2017-08-07T12:49:50.546Z,24.95
2017-08-07T12:50:52.377Z,24.85
2017-08-07T12:51:54.270Z,24.77
2017-08-07T12:52:56.158Z,24.80
2017-08-07T12:53:58.051Z,24.68
2017-08-07T12:55:12.220Z,24.71
2017-08-07T12:56:14.110Z,24.78
2017-08-07T12:57:16.001Z,24.76
2017-08-07T12:58:17.891Z,24.78
2017-08-07T12:59:19.722Z,24.91
2017-08-07T13:00:21.557Z,25.05
2017-08-07T13:01:23.448Z,24.99
2017-08-07T13:02:25.342Z,25.03
2017-08-07T13:03:27.235Z,25.18
2017-08-07T13:04:41.405Z,25.27
2017-08-07T13:05:43.294Z,25.30
2017-08-07T13:06:45.186Z,25.43
2017-08-07T13:07:47.074Z,25.35
2017-08-07T13:08:48.905Z,25.50
2017-08-07T13:09:50.739Z,25.51
2017-08-07T13:10:52.627Z,25.52
2017-08-07T13:11:54.519Z,25.62
2017-08-07T13:12:56.412Z,25.61
2017-08-07T13:14:10.582Z,25.70
2017-08-07T13:15:12.479Z,25.75
2017-08-07T13:16:14.384Z,25.69
2017-08-07T13:17:16.271Z,25.77
2017-08-07T13:18:18.115Z,25.75
2017-08-07T13:19:19.950Z,25.77
2017-08-07T13:20:21.888Z,25.82
2017-08-07T13:21:23.757Z,25.79
2017-08-07T13:22:25.650Z,25.76
2017-08-07T13:23:40.027Z,25.73
2017-08-07T13:24:41.916Z,25.75
2017-08-07T13:25:43.807Z,25.79
2017-08-07T13:26:45.697Z,25.77
2017-08-07T13:27:47.535Z,25.73
2017-08-07T13:28:49.368Z,25.80
2017-08-07T13:29:51.260Z,25.82
2017-08-07T13:30:53.149Z,25.80
2017-08-07T13:31:55.044Z,25.83
2017-08-07T13:33:09.216Z,25.85
2017-08-07T13:34:11.104Z,25.82